Baraboo, Wisconsin
Current Conditions -  °F | °C
As of 4:55 AM on Wednesday 26 Nov 2014 (Local Time) from KDLL Reporting Station
Broken Clouds Broken Clouds  
Wind Chill: 11°   Ceiling: 7000
Heat Index: 11°   Visibility: 7mi
Dew Point:   Wind: 0mph
Humidity: 91%   Direction: NA
Pressure: 30.09"   Gusts: NA
Location:  43.47°N, 89.74°W
Report Text: KDLL 261055Z AUTO 00000KT 7SM BKN070 M12/M13 A3009 RMK AO2 T11191131
Loading
Personal Weather Stations






























Interactive Weather Map New forecast layout! Learn more

10-Day Weather Forecast

Advertisements
Track Severe Weather on mobile